Austin Bergstrom International Airport
KAUS : now visible

Airfield :











YOU CAN JOIN US ON...

 
LOGIN :

Register | Disclaimer

   EN    FR    IT 

 









Legend :    VFR   Marginal VFR   IFR   Intensive IFR   Very Intensive IFR
Visi :
Ceiling :
>= 8 km
>= 3000ft
5 to 8 km
1000 to 3000 ft
1500m to 5 km
500 to 1000 ft
800 to 1500m
200 to 500 ft
< 800m
< 200 ft
Symbols :   Thunderstorms  Fog  Heavy snow  Heavy precipitations  Wind > 20 kt






- Airport Elevation : 542 ft
- IATA code : AUS


KAUS - Austin Bergstrom International

CURRENT METAR :
  • 172153Z 20010KT 10SM FEW027 SCT035 BKN100 26/19 A2978 RMK AO2 SLP076 T02610194

EXPIRED METARs :
  • 172053Z 19014G21KT 10SM FEW027 SCT036 26/19 A2978 RMK AO2 SLP077 T02560194 58033
  • 171953Z 20009G19KT 10SM SCT024 BKN034 25/19 A2981 RMK AO2 SLP088 T02500189

TAF KAUS
Valid from the 17 at 18:00 until the 19 at 00:00 UTC


171724Z 1718/1824 20009KT P6SM OVC013
FM172000 20010KT P6SM BKN035
FM172300 17007KT P6SM SCT250
FM180700 VRB04KT P6SM OVC009
FM181100 VRB03KT 4SM -DZ BR OVC004
FM181600 03005KT P6SM OVC006
PROB30 1816/1820 2SM -SHRA BR OVC004
FM182000 01009KT P6SM OVC012
PROB30 1820/1824 2SM -SHRA BR OVC008



MET'MAP, your aeronautical weather chart ! - Copyright ORBIFLY December 2007 - Disclaimer

ORBIFLY MET'MAP TEAM :

Programming & Development : Alexandra Zaïnal
Concept & original design : Baudouin d'Aumeries
Assistance for programming : Marc-Olivier Méhu
Technical & hardware support : Manuel Goepfert

Contact : metmap@orbifly.com




SOURCES & CREDITS :

   NOAA       Earth
Advisory